Aérodrome :
LOGIN :

S'inscrire | Disclaimer

   EN    FR    IT 

 










Légende :    VFR   VFR Marginal   IFR   IFR Intensif   IFR Très Intensif
Visi : 
Plafond : 
>= 8 km
>= 3000ft
5 à 8 km
1000 à 3000 ft
1500m à 5 km
500 à 1000 ft
800 à 1500m
200 à 500 ft
< 800m
< 200 ft
Symboles :   Orages  Brouillard  Fortes neiges  Fortes précipitations  Vent > 20 kt
SIGMETs :   Divers  Orages  Givrage  Turbulence  Onde Orograph.  Cendres Volcan.






- Altitude de l'aérodrome : 659 ft
- Code IATA : LYN


LFLY - Lyon Bron

DERNIER METAR :
  • 101100Z AUTO 18008KT 090V220 CAVOK 34/14 Q1013 NOSIG

METARs EXPIRÉS :
  • 101030Z AUTO 17008KT 120V200 CAVOK 33/14 Q1013 NOSIG
  • 101000Z AUTO 17008KT 130V200 CAVOK 32/14 Q1014 NOSIG
  • 100930Z AUTO 18010KT 140V200 CAVOK 31/14 Q1014 NOSIG
  • 100900Z AUTO 16008KT 130V200 CAVOK 30/16 Q1014 NOSIG
  • 100830Z AUTO 17008KT 140V200 CAVOK 28/16 Q1014 NOSIG
  • 100800Z AUTO 15005KT 100V210 CAVOK 27/15 Q1014 NOSIG

TAF TAF LFLY
Valide du 10 à 06h jusqu'au 11 à 06h UTC


100500Z 1006/1106 16005KT CAVOK
PROB40
TEMPO 1016/1020 VRB20G40KT TSRA SCT070CB
ATIS : +33 4 72 15 87 96



MET'MAP, la Météo Aéronautique d'un coup d'oeil ! - Copyright ORBIFLY Décembre 2007 - Disclaimer

ORBIFLY MET'MAP TEAM :

Programmation & Développement : Alexandra Zaïnal
Sur une idée originale de : Baudouin d'Aumeries
Assistance à la programmation : Marc-Olivier Méhu
Soutien technique & logistique : Manuel Goepfert

Contact : metmap@orbifly.com




SOURCES & CREDITS :

   NOAA